Latest Coastal Weather Observations for Albion Park

IDN60701

Issued at 10:41 pm EST Sunday 19 April 2015 (issued every 10 minutes, with the page automatically refreshed every 10 minutes)

About coastal observations | Map of coastal stations | Coastal observations for NSW | Marine services | Other Formats
Station Details ID: 068241 Name: WOLLONGONG AIRPORT Lat: -34.56 Lon: 150.79 Height: 8.0 m
Data from the previous 72 hours. | See also: Recent months at Albion Park
Date/Time
EST
Temp

°C
Wind Pressure Rain
since 9am
mm
Weather Cloud Vis
km
Sea
Height
m
Swell
Dir
 
Speed
knots
Gust
knots
hPa Trend Height
m
Period
s
Dir
19/10:39pm 12.9 SSW 16 26 1026.5 - 2.6 - Partly cloudy 10 - - - -
19/10:37pm 12.9 SSW 16 26 1026.5 - 2.6 - Partly cloudy 10 - - - -
19/10:30pm 13.0 SSW 17 25 1026.7 - 2.6 - Partly cloudy 10 - - - -
19/10:12pm 12.8 SSW 15 26 1026.6 - 2.4 - Cloudy 10 - - - -
19/10:00pm 12.7 SSW 15 22 1026.3 - 2.2 - Partly cloudy 10 - - - -
19/09:30pm 13.0 SSW 16 28 1026.2 - 1.4 - Cloudy 10 - - - -
19/09:29pm 13.2 SSW 15 28 1026.2 - 1.4 - Cloudy 10 - - - -
19/09:27pm 13.2 SSW 15 28 1026.2 - 1.4 - Cloudy 10 - - - -
19/09:00pm 13.3 SSW 12 17 1025.7 - 1.0 Recent precip. Cloudy 10 - - - -
19/08:30pm 13.6 SSW 10 15 1025.4 - 0.8 - Cloudy 10 - - - -
19/08:00pm 13.5 SSW 9 13 1025.1 - 0.4 - Cloudy 10 - - - -
19/07:30pm 13.0 S 16 23 1024.5 - 0.4 - Cloudy 10 - - - -
19/07:00pm 13.0 SSW 16 23 1024.4 - 0.2 - Cloudy 10 - - - -
19/06:30pm 13.4 SSW 19 31 1024.2 - 0.0 - Cloudy 10 - - - -
19/06:09pm 13.4 SSW 19 30 1023.7 - 0.0 - Cloudy 10 - - - -
19/06:07pm 13.4 SSW 19 30 1023.7 - 0.0 - Cloudy 10 - - - -
19/06:00pm 13.6 SSW 18 26 1023.7 - 0.0 - Cloudy 10 - - - -
19/05:56pm 13.7 SSW 15 25 1023.6 - 0.0 - Cloudy 10 - - - -
19/05:54pm 13.7 SSW 15 25 1023.6 - 0.0 - Cloudy 10 - - - -
19/05:30pm 13.8 SSW 17 25 1023.4 - 0.0 - Cloudy 10 - - - -
19/05:14pm 14.1 SSW 17 32 1023.2 - 0.0 - Cloudy 10 - - - -
19/05:12pm 14.1 SSW 17 32 1023.2 - 0.0 - Cloudy 10 - - - -
19/05:00pm 14.2 SSW 18 27 1022.9 - 0.0 - Cloudy 10 - - - -
19/04:30pm 15.2 S 17 24 1022.1 - 0.0 - Cloudy 10 - - - -
19/04:00pm 15.5 S 15 22 1021.6 - 0.0 - Cloudy 10 - - - -
19/03:30pm 16.1 S 16 23 1021.4 - 0.0 - Cloudy 10 - - - -
19/03:16pm 16.2 S 15 27 1021.0 - 0.0 - Cloudy 10 - - - -
19/03:14pm 16.2 S 15 27 1021.0 - 0.0 - Cloudy 10 - - - -
19/03:00pm 16.6 S 16 22 1020.8 - 0.0 - Cloudy 10 - - - -
19/02:30pm 17.1 SSE 13 20 1020.6 - 0.0 - Partly cloudy 10 - - - -
19/02:00pm 17.4 SSE 11 19 1020.3 - 0.0 - Partly cloudy 10 - - - -
19/01:30pm 18.2 SSE 7 10 1020.3 - 0.0 - Partly cloudy 10 - - - -
19/01:00pm 17.5 S 10 14 1020.4 - 0.0 - Partly cloudy 10 - - - -
19/12:52pm 17.1 S 9 14 1020.3 - 0.0 - Partly cloudy 10 - - - -
19/12:30pm 17.2 S 9 11 1020.4 - 0.0 - Partly cloudy 10 - - - -
19/12:15pm 17.6 S 11 14 1020.3 - 0.0 - Partly cloudy 10 - - - -
19/12:10pm 17.7 S 10 14 1020.2 - 0.0 - Partly cloudy 10 - - - -
19/12:00pm 18.0 S 10 13 1020.1 - 0.0 - Cloudy 10 - - - -
19/11:30am 18.6 S 12 17 1020.2 - 0.0 - Partly cloudy 10 - - - -
19/11:00am 19.6 S 11 15 1019.8 - 0.0 - Partly cloudy 10 - - - -
19/10:30am 20.1 S 14 19 1019.5 - 0.0 - Partly cloudy 10 - - - -
19/10:00am 20.6 W 8 13 1018.9 - 0.0 - - 10 - - - -
19/09:30am 20.1 W 10 14 1018.7 - 0.0 - - 10 - - - -
19/09:00am 19.3 W 13 17 1018.5 - 10.2 - - 10 - - - -
19/08:30am 18.5 W 11 14 1018.1 - 10.2 - - 10 - - - -
19/08:00am 17.8 W 12 16 1017.8 - 10.2 - - 10 - - - -
19/07:30am 17.1 W 11 15 1017.2 - 10.2 - - 10 - - - -
19/07:00am 15.9 WSW 11 14 1016.6 - 10.2 - - 10 - - - -
19/06:30am 15.3 WSW 7 8 1016.2 - 10.2 - Partly cloudy 10 - - - -
19/06:00am 16.2 SSW 5 8 1015.3 - 10.2 - Cloudy 10 - - - -
19/05:30am 17.3 NW 7 9 1015.0 - 10.2 - Partly cloudy 10 - - - -
19/05:00am 18.0 W 10 14 1014.4 - 10.2 - - 10 - - - -
19/04:30am 17.7 WSW 6 11 1013.9 - 10.2 - Partly cloudy 10 - - - -
19/04:00am 16.9 WSW 3 5 1013.8 - 10.2 - Partly cloudy 10 - - - -
19/03:30am 18.0 WSW 3 4 1013.6 - 10.2 - Partly cloudy 10 - - - -
19/03:00am 18.0 WSW 2 6 1013.4 - 10.2 - Cloudy 10 - - - -
19/02:30am 18.5 NW 5 6 1013.1 - 10.2 - - 10 - - - -
19/02:00am 18.4 SW 1 4 1013.3 - 10.2 - Partly cloudy 10 - - - -
19/01:30am 18.5 SW 4 6 1013.4 - 10.2 - Partly cloudy 10 - - - -
19/01:00am 18.8 WSW 3 5 1013.9 - 10.2 - Partly cloudy 10 - - - -
19/12:30am 19.4 N 6 8 1013.6 - 10.2 - Partly cloudy 10 - - - -
19/12:00am 18.7 WNW 4 5 1013.9 - 10.2 Recent precip. Cloudy 10 - - - -
 
Date/Time
EST
Temp

°C
Wind Pressure Rain
since 9am
mm
Weather Cloud Vis
km
Sea
Height
m
Swell
Dir
 
Speed
knots
Gust
knots
hPa Trend Height
m
Period
s
Dir
18/11:30pm 19.1 NE 5 7 1013.9 - 10.0 - Cloudy 10 - - - -
18/11:00pm 19.0 N 6 7 1013.9 - 10.0 - Partly cloudy 10 - - - -
18/10:43pm 19.0 CALM 0 0 1014.2 - 9.8 - Partly cloudy 10 - - - -
18/10:30pm 19.2 NNW 1 3 1014.4 - 9.4 - Partly cloudy 6 - - - -
18/10:25pm 19.2 NNW 2 3 1014.4 - 9.2 - Partly cloudy 5 - - - -
18/10:04pm 19.3 N 5 6 1014.1 - 8.8 - Partly cloudy 10 - - - -
18/10:03pm 19.3 NNW 5 6 1014.1 - 8.8 - Partly cloudy 10 - - - -
18/10:00pm 19.3 N 5 7 1014.1 - 8.6 - Partly cloudy 9 - - - -
18/09:49pm 19.4 N 6 7 1014.0 - 8.4 - Partly cloudy 5 - - - -
18/09:48pm 19.4 N 6 7 1014.0 - 8.4 - Partly cloudy 5 - - - -
18/09:39pm 19.2 NNE 7 8 1014.2 - 7.8 - Partly cloudy 8 - - - -
18/09:37pm 19.2 N 6 8 1014.2 - 7.8 - Partly cloudy 8 - - - -
18/09:30pm 19.6 W 3 6 1014.0 - 7.6 - Partly cloudy 7 - - - -
18/09:00pm 19.5 N 5 11 1014.1 - 6.0 Rain Cloudy 1 - - - -
18/08:47pm 20.6 SW 10 14 1014.1 - 1.6 - Partly cloudy 5 - - - -
18/08:46pm 20.6 WSW 10 14 1014.1 - 1.6 - Partly cloudy 5 - - - -
18/08:30pm 20.9 WNW 5 8 1013.8 - 0.6 - Partly cloudy 10 - - - -
18/08:00pm 22.1 N 8 10 1013.3 - 0.2 - Cloudy 10 - - - -
18/07:30pm 22.9 N 4 6 1013.1 - 0.0 - Partly cloudy 10 - - - -
18/07:00pm 22.8 NNW 5 7 1012.8 - 0.0 - - 10 - - - -
18/06:30pm 22.8 N 6 8 1012.5 - 0.0 - - 10 - - - -
18/06:00pm 21.7 CALM 0 0 1012.1 - 0.0 - Cloudy 10 - - - -
18/05:30pm 22.2 CALM 0 0 1011.9 - 0.0 - - 10 - - - -
18/05:00pm 22.6 ESE 4 5 1011.9 - 0.0 - - 10 - - - -
18/04:30pm 23.0 SSE 3 4 1012.0 - 0.0 - - 10 - - - -
18/04:00pm 23.7 SE 1 3 1012.3 - 0.0 - - 10 - - - -
18/03:30pm 24.0 E 3 4 1012.4 - 0.0 - - 10 - - - -
18/03:00pm 23.8 ENE 5 7 1012.8 - 0.0 - Mostly cloudy 10 - - - -
18/02:30pm 25.3 NNE 6 9 1012.8 - 0.0 - - 10 - - - -
18/02:00pm 26.0 N 7 9 1012.9 - 0.0 - - 10 - - - -
18/01:30pm 25.1 ENE 7 9 1013.1 - 0.0 - - 10 - - - -
18/01:00pm 24.7 NE 9 10 1013.4 - 0.0 - - 10 - - - -
18/12:30pm 25.8 NNE 8 10 1013.8 - 0.0 - - 10 - - - -
18/12:00pm 25.1 NNE 7 9 1014.5 - 0.0 - Mostly cloudy 10 - - - -
18/11:30am 24.8 NNE 7 11 1014.9 - 0.0 - - 10 - - - -
18/11:00am 24.0 N 9 12 1015.4 - 0.0 - - 10 - - - -
18/10:30am 23.5 N 10 13 1015.6 - 0.0 - - 10 - - - -
18/10:00am 23.5 N 8 12 1015.7 - 0.0 - - 10 - - - -
18/09:30am 22.5 N 11 13 1015.8 - 0.0 - - 10 - - - -
18/09:00am 22.3 N 9 12 1016.1 - 3.4 - Partly cloudy 10 - - - -
18/08:30am 21.8 NNE 9 12 1016.5 - 3.4 - - 10 - - - -
18/08:00am 21.6 N 6 10 1016.6 - 3.4 - - 10 - - - -
18/07:30am 21.6 NW 11 15 1016.6 - 3.4 - - 10 - - - -
18/07:00am 20.6 NNW 6 9 1016.4 - 3.4 - - 10 - - - -
18/06:30am 20.2 NW 7 9 1016.0 - 3.4 - - 10 - - - -
18/06:00am 20.6 N 5 11 1015.9 - 3.4 - - 10 - - - -
18/05:30am 20.7 N 6 9 1016.0 - 3.4 - - 10 - - - -
18/05:00am 20.7 NNW 7 11 1016.0 - 3.4 - - 10 - - - -
18/04:30am 19.4 NE 3 5 1016.2 - 3.4 - - 10 - - - -
18/04:00am 19.6 NNE 4 5 1016.3 - 3.4 - Partly cloudy 9 - - - -
18/03:30am 20.3 NNW 4 7 1016.6 - 3.4 - - 9 - - - -
18/03:00am 20.6 N 5 8 1016.9 - 3.4 - Cloudy 10 - - - -
18/02:30am 20.8 NNE 2 5 1017.3 - 3.4 - - 10 - - - -
18/02:00am 20.9 NNW 9 12 1017.8 - 3.4 - Partly cloudy 10 - - - -
18/01:30am 20.4 N 5 9 1018.4 - 3.4 - Partly cloudy 10 - - - -
18/01:00am 20.0 N 3 5 1018.7 - 3.4 - Partly cloudy 10 - - - -
18/12:30am 19.7 NNW 4 6 1019.1 - 3.4 - Partly cloudy 10 - - - -
18/12:00am 19.2 CALM 0 0 1019.4 - 3.4 - Cloudy 7 - - - -
 
Date/Time
EST
Temp

°C
Wind Pressure Rain
since 9am
mm
Weather Cloud Vis
km
Sea
Height
m
Swell
Dir
 
Speed
knots
Gust
knots
hPa Trend Height
m
Period
s
Dir
17/11:58pm 19.2 CALM 0 0 1019.4 - 3.4 - Partly cloudy 7 - - - -
17/11:30pm 19.4 WNW 3 4 1020.2 - 3.4 - Cloudy 8 - - - -
17/11:00pm 19.5 WNW 4 5 1020.2 - 3.4 - Cloudy 7 - - - -
17/10:30pm 19.6 WNW 4 4 1020.5 - 3.4 - Partly cloudy 9 - - - -
17/10:00pm 19.8 N 4 5 1020.7 - 3.4 - Partly cloudy 10 - - - -
17/09:57pm 19.7 N 4 5 1020.8 - 3.4 - Partly cloudy 10 - - - -
17/09:40pm 19.6 NNE 5 6 1020.8 - 3.4 - Partly cloudy 10 - - - -
17/09:30pm 19.6 N 5 6 1020.8 - 3.4 - Partly cloudy 10 - - - -
17/09:04pm 19.7 N 5 6 1021.0 - 3.4 - Partly cloudy 10 - - - -
17/09:00pm 19.8 N 5 6 1021.0 - 3.4 - Cloudy 10 - - - -
17/08:59pm 19.8 N 5 6 1021.0 - 3.4 - Partly cloudy 10 - - - -
17/08:30pm 20.0 NNE 6 9 1021.2 - 3.4 - Partly cloudy 10 - - - -
17/08:00pm 20.2 NE 8 11 1021.2 - 3.4 - Partly cloudy 10 - - - -
17/07:51pm 20.1 NNE 8 11 1021.2 - 3.4 - Partly cloudy 10 - - - -
17/07:50pm 20.2 NNE 8 11 1021.2 - 3.4 - Partly cloudy 10 - - - -
17/07:34pm 20.1 NNE 8 13 1021.2 - 3.4 - Partly cloudy 10 - - - -
17/07:33pm 20.1 NNE 8 13 1021.2 - 3.4 - Partly cloudy 10 - - - -
17/07:30pm 20.0 NNE 7 11 1021.2 - 3.4 - Partly cloudy 10 - - - -
17/07:00pm 19.8 N 5 7 1021.0 - 3.4 - Cloudy 10 - - - -
17/06:30pm 19.9 N 6 11 1020.9 - 3.4 - Partly cloudy 10 - - - -
17/06:09pm 19.8 NE 6 8 1020.8 - 3.4 - Partly cloudy 10 - - - -
17/06:08pm 19.8 NE 6 8 1020.8 - 3.4 - Partly cloudy 10 - - - -
17/06:00pm 19.7 NE 6 8 1020.7 - 3.4 - Mostly cloudy 10 - - - -
17/05:30pm 19.7 NNE 3 5 1021.2 - 3.4 - Partly cloudy 10 - - - -
17/05:24pm 19.7 NNE 3 4 1021.1 - 3.4 - Partly cloudy 10 - - - -
17/05:00pm 19.6 N 3 5 1021.2 - 3.4 - Partly cloudy 10 - - - -
17/04:30pm 19.6 NE 6 7 1021.0 - 3.4 - Partly cloudy 10 - - - -
17/04:00pm 19.6 NE 7 9 1021.0 - 3.4 - Partly cloudy 7 - - - -
17/03:30pm 19.7 NE 7 8 1021.4 - 3.4 - Cloudy 8 - - - -
17/03:00pm 19.6 NE 7 8 1021.5 - 3.2 Rain Mostly cloudy 8 - - - -
17/02:30pm 19.7 NE 7 9 1021.6 - 2.8 - Partly cloudy 10 - - - -
17/02:00pm 19.8 NE 7 10 1021.7 - 2.8 - Partly cloudy 10 - - - -
17/01:30pm 19.8 NE 7 8 1021.9 - 2.8 - Partly cloudy 10 - - - -
17/01:00pm 19.6 NE 7 9 1022.3 - 2.8 - Partly cloudy 10 - - - -
17/12:46pm 19.5 NNE 5 7 1022.6 - 2.8 - Partly cloudy 9 - - - -
17/12:45pm 19.5 NNE 5 7 1022.6 - 2.8 - Partly cloudy 9 - - - -
17/12:30pm 19.3 NNE 6 8 1023.0 - 2.8 - Partly cloudy 4 - - - -
17/12:00pm 19.4 SW 3 5 1023.6 - 2.2 Rain Cloudy 4 - - - -
17/11:30am 19.3 CALM 0 0 1024.1 - 1.6 - Partly cloudy 5 - - - -
17/11:07am 19.3 CALM 0 0 1024.5 - 1.4 - Partly cloudy 5 - - - -
17/11:06am 19.3 CALM 0 0 1024.5 - 1.4 - Partly cloudy 5 - - - -
17/11:00am 19.3 SW 1 3 1024.5 - 1.4 - Partly cloudy 7 - - - -
17/10:53am 19.1 SW 4 5 1024.6 - 1.2 - Partly cloudy 6 - - - -
17/10:51am 19.1 SW 4 5 1024.6 - 1.2 - Partly cloudy 6 - - - -
17/10:30am 19.2 SW 3 4 1024.8 - 1.2 - Partly cloudy 3 - - - -
17/10:26am 19.1 SW 3 4 1024.8 - 1.2 - Partly cloudy 5 - - - -
17/10:25am 19.1 SW 3 4 1024.8 - 1.2 - Partly cloudy 5 - - - -
17/10:11am 19.3 SW 3 3 1024.7 - 1.0 - Cloudy 6 - - - -
17/10:10am 19.3 SW 3 3 1024.7 - 1.0 - Cloudy 6 - - - -
17/10:00am 19.1 SW 3 4 1024.8 - 0.6 - Partly cloudy 5 - - - -
17/09:41am 19.0 SW 3 3 1024.9 - 0.4 - Partly cloudy 5 - - - -
17/09:40am 19.0 SW 3 3 1024.9 - 0.4 - Partly cloudy 5 - - - -
17/09:30am 19.0 SW 3 4 1025.0 - 0.0 - Partly cloudy 9 - - - -
17/09:06am 18.9 SW 3 4 1025.1 - 0.0 - Partly cloudy 9 - - - -
17/09:05am 18.9 SW 3 4 1025.1 - 0.0 - Partly cloudy 9 - - - -
17/09:00am 18.8 SW 3 3 1025.1 - - Recent precip. Cloudy 7 - - - -
17/08:43am 18.7 SW 3 4 1025.0 - 3.2 - Cloudy 5 - - - -
17/08:42am 18.7 SW 3 4 1025.0 - - - Cloudy 5 - - - -
17/08:31am 18.7 SW 4 5 1025.0 - 2.8 - Cloudy 7 - - - -
17/08:30am 18.7 SW 4 5 1025.0 - - - Partly cloudy 7 - - - -
17/08:00am 18.6 SSW 3 4 1024.8 - - - Cloudy 5 - - - -
17/07:33am 18.7 SSW 4 5 1024.6 - 2.0 - Cloudy 5 - - - -
17/07:32am 18.7 SSW 4 5 1024.6 - - - Cloudy 5 - - - -
17/07:30am 18.7 SSW 3 5 1024.6 - - - Cloudy 6 - - - -
17/07:00am 18.7 SSW 2 4 1024.3 - - - Cloudy 8 - - - -
17/06:34am 18.6 CALM 0 0 1023.8 - 1.8 - Cloudy 8 - - - -
17/06:33am 18.6 CALM 0 0 1023.8 - - - Cloudy 8 - - - -
17/06:30am 18.6 CALM 0 0 1023.8 - - - Cloudy 8 - - - -
17/06:15am 18.6 SSW 1 4 1023.8 - 1.6 - Partly cloudy 5 - - - -
17/06:14am 18.6 SSW 1 4 1023.8 - - - Cloudy 5 - - - -
17/06:00am 18.7 SSW 3 4 1024.1 - - Rain Cloudy 10 - - - -
17/05:30am 18.7 SSW 3 4 1023.6 - - - Cloudy 7 - - - -
17/05:00am 18.8 SSW 3 4 1023.6 - - - Cloudy 10 - - - -
17/04:30am 18.9 CALM 0 0 1023.3 - - - Cloudy 10 - - - -
17/04:00am 19.2 SSW 3 4 1023.6 - - - Cloudy 10 - - - -
17/03:30am 19.1 SSW 2 4 1023.4 - - - Cloudy 10 - - - -
17/03:00am 19.3 SSE 3 6 1023.5 - 0.0 - Cloudy 10 - - - -
17/02:30am 19.2 SSE 5 8 1023.6 - - - Partly cloudy 9 - - - -
17/02:00am 19.5 S 6 8 1024.0 - - - Cloudy 10 - - - -
17/01:30am 19.7 S 6 8 1023.9 - - - Partly cloudy 10 - - - -
17/01:00am 19.8 S 4 5 1024.1 - - - Partly cloudy 10 - - - -
17/12:45am 19.8 S 3 5 1024.0 - 0.0 - Partly cloudy 10 - - - -
17/12:44am 19.8 S 3 5 1024.0 - - - Partly cloudy 10 - - - -
17/12:34am 19.7 SSE 2 4 1024.1 - 0.0 - Partly cloudy 10 - - - -
17/12:31am 19.7 SSE 3 4 1024.1 - - - Partly cloudy 10 - - - -
17/12:30am 19.7 SSE 3 5 1024.1 - - - Partly cloudy 10 - - - -
17/12:00am 19.7 SSE 5 7 1024.0 - 0.0 - Cloudy 9 - - - -
 
Date/Time
EST
Temp

°C
Wind Pressure Rain
since 9am
mm
Weather Cloud Vis
km
Sea
Height
m
Swell
Dir
 
Speed
knots
Gust
knots
hPa Trend Height
m
Period
s
Dir
16/11:30pm 20.1 S 7 8 1024.1 - - - Partly cloudy 10 - - - -
16/11:07pm 20.1 S 5 7 1024.3 - - - Partly cloudy 10 - - - -
16/11:04pm 20.1 S 5 7 1024.3 - 0.0 - Partly cloudy 10 - - - -
16/11:00pm 20.2 S 5 7 1024.4 - - - Partly cloudy 10 - - - -
16/10:47pm 20.2 S 4 6 1024.4 - - - Partly cloudy 10 - - - -
16/10:45pm 20.2 S 4 6 1024.4 - 0.0 - Partly cloudy 10 - - - -

Other Formats:

Comma delimited format used in spreadsheet applications
http://www.bom.gov.au/fwo/IDN60701/IDN60701.95748.axf

JavaScript Object Notation format (JSON) in row-major order
http://www.bom.gov.au/fwo/IDN60701/IDN60701.95748.json